createdAt,value
2023-05-10T00:00:10.589Z,235.84
2023-05-10T00:01:10.649Z,235.80
2023-05-10T00:02:10.693Z,235.86
2023-05-10T00:03:10.864Z,235.40
2023-05-10T00:04:10.860Z,233.89
2023-05-10T00:05:10.862Z,234.96
2023-05-10T00:06:10.943Z,236.55
2023-05-10T00:07:10.988Z,234.33
2023-05-10T00:08:11.054Z,235.06
2023-05-10T00:09:11.104Z,233.47
2023-05-10T00:10:11.161Z,234.65
2023-05-10T00:11:11.225Z,234.44
2023-05-10T00:12:11.286Z,234.05
2023-05-10T00:13:11.385Z,233.68
2023-05-10T00:14:11.380Z,234.69
2023-05-10T00:15:11.443Z,233.96
2023-05-10T00:16:11.525Z,236.80
2023-05-10T00:17:11.554Z,235.46
2023-05-10T00:18:11.633Z,234.09
2023-05-10T00:19:11.683Z,234.75
2023-05-10T00:20:11.747Z,232.72
2023-05-10T00:21:11.802Z,234.24
2023-05-10T00:22:11.867Z,232.75
2023-05-10T00:23:11.936Z,233.45
2023-05-10T00:24:12.012Z,230.62
2023-05-10T00:25:12.033Z,232.57
2023-05-10T00:26:12.100Z,232.50
2023-05-10T00:27:12.158Z,231.43
2023-05-10T00:28:12.238Z,233.34
2023-05-10T00:29:12.272Z,234.64
2023-05-10T00:30:12.366Z,233.44
2023-05-10T00:31:12.396Z,233.37
2023-05-10T00:32:12.493Z,233.29
2023-05-10T00:33:12.537Z,234.56
2023-05-10T00:34:12.577Z,234.38
2023-05-10T00:35:12.636Z,233.39
2023-05-10T00:36:12.709Z,233.26
2023-05-10T00:37:12.755Z,235.19
2023-05-10T00:38:12.835Z,234.14
2023-05-10T00:39:12.897Z,237.29
2023-05-10T00:40:12.941Z,231.92
2023-05-10T00:41:13.004Z,232.72
2023-05-10T00:42:13.058Z,233.84
2023-05-10T00:43:13.140Z,233.69
2023-05-10T00:44:13.187Z,231.01
2023-05-10T00:45:13.250Z,233.35
2023-05-10T00:46:13.361Z,232.20
2023-05-10T00:47:13.376Z,232.47
2023-05-10T00:48:13.445Z,232.18
2023-05-10T00:49:13.482Z,232.21
2023-05-10T00:50:13.660Z,230.32
2023-05-10T00:51:13.605Z,231.15
2023-05-10T00:52:13.661Z,228.68
2023-05-10T00:53:13.740Z,230.48
2023-05-10T00:54:13.778Z,229.20
2023-05-10T00:55:13.823Z,228.25
2023-05-10T00:56:13.900Z,228.59
2023-05-10T00:57:13.948Z,227.69
2023-05-10T00:58:14.007Z,226.51
2023-05-10T00:59:14.072Z,226.70
2023-05-10T01:00:14.289Z,225.88
2023-05-10T01:01:14.235Z,230.50
2023-05-10T01:02:14.283Z,230.22
2023-05-10T01:03:14.439Z,231.13
2023-05-10T01:04:14.375Z,230.03
2023-05-10T01:05:14.460Z,230.72
2023-05-10T01:06:14.474Z,229.53
2023-05-10T01:07:14.555Z,229.78
2023-05-10T01:08:14.626Z,230.59
2023-05-10T01:09:14.657Z,232.24
2023-05-10T01:10:14.858Z,232.28
2023-05-10T01:11:14.788Z,230.85
2023-05-10T01:12:14.906Z,233.58
2023-05-10T01:13:14.907Z,231.04
2023-05-10T01:14:14.959Z,232.79
2023-05-10T01:15:15.022Z,231.96
2023-05-10T01:16:15.102Z,231.69
2023-05-10T01:17:15.133Z,230.79
2023-05-10T01:18:15.182Z,230.06
2023-05-10T01:19:15.241Z,230.83
2023-05-10T01:20:15.583Z,233.19
2023-05-10T01:21:15.358Z,232.27
2023-05-10T01:22:15.428Z,234.87
2023-05-10T01:23:15.482Z,234.65
2023-05-10T01:24:15.530Z,234.79
2023-05-10T01:25:15.605Z,233.20
2023-05-10T01:26:15.658Z,233.35
2023-05-10T01:27:15.727Z,235.84
2023-05-10T01:28:15.762Z,236.97
2023-05-10T01:29:15.829Z,236.13
2023-05-10T01:30:16.334Z,236.09
2023-05-10T01:31:16.024Z,236.97
2023-05-10T01:32:16.066Z,235.22
2023-05-10T01:33:16.044Z,232.48
2023-05-10T01:34:16.089Z,233.12
2023-05-10T01:35:16.119Z,232.24
2023-05-10T01:36:16.153Z,231.30
2023-05-10T01:37:16.217Z,232.30
2023-05-10T01:38:16.268Z,229.36
2023-05-10T01:39:16.296Z,228.01
2023-05-10T01:40:16.618Z,228.83
2023-05-10T01:41:16.371Z,226.89
2023-05-10T01:42:16.431Z,228.46
2023-05-10T01:43:16.466Z,226.55
2023-05-10T01:44:16.544Z,224.28
2023-05-10T01:45:16.569Z,222.75
2023-05-10T01:46:16.640Z,222.60
2023-05-10T01:47:16.672Z,221.97
2023-05-10T01:48:16.711Z,220.79
2023-05-10T01:49:16.759Z,222.41
2023-05-10T01:50:17.115Z,221.99
2023-05-10T01:51:16.868Z,221.01
2023-05-10T01:52:16.923Z,223.91
2023-05-10T01:53:16.961Z,222.19
2023-05-10T01:54:17.018Z,222.61
2023-05-10T01:55:17.082Z,225.67
2023-05-10T01:56:17.113Z,222.21
2023-05-10T01:57:17.161Z,221.40
2023-05-10T01:58:17.173Z,222.73
2023-05-10T01:59:17.263Z,222.92
2023-05-10T02:00:17.485Z,220.47
2023-05-10T02:01:17.365Z,218.41
2023-05-10T02:02:17.383Z,222.96
2023-05-10T02:03:17.471Z,223.49
2023-05-10T02:04:17.446Z,221.54
2023-05-10T02:05:17.518Z,223.98
2023-05-10T02:06:17.487Z,224.44
2023-05-10T02:07:17.497Z,223.38
2023-05-10T02:08:17.504Z,221.59
2023-05-10T02:09:17.545Z,223.51
2023-05-10T02:10:17.787Z,225.93
2023-05-10T02:11:17.589Z,224.55
2023-05-10T02:12:17.626Z,222.97
2023-05-10T02:13:17.684Z,225.15
2023-05-10T02:14:17.682Z,227.38
2023-05-10T02:15:17.717Z,224.83
2023-05-10T02:16:17.769Z,225.15
2023-05-10T02:17:17.781Z,225.84
2023-05-10T02:18:17.840Z,224.32
2023-05-10T02:19:17.867Z,221.23
2023-05-10T02:20:18.141Z,222.90
2023-05-10T02:21:17.856Z,223.29
2023-05-10T02:22:17.860Z,222.66
2023-05-10T02:23:17.885Z,218.97
2023-05-10T02:24:17.904Z,215.58
2023-05-10T02:25:17.902Z,218.24
2023-05-10T02:26:17.899Z,215.90
2023-05-10T02:27:17.900Z,216.12
2023-05-10T02:28:17.891Z,215.64
2023-05-10T02:29:17.914Z,214.93
2023-05-10T02:30:18.101Z,213.54
2023-05-10T02:31:17.933Z,217.27
2023-05-10T02:32:18.176Z,215.00
2023-05-10T02:33:17.956Z,216.51
2023-05-10T02:34:17.952Z,218.23
2023-05-10T02:35:17.948Z,216.25
2023-05-10T02:36:17.943Z,214.81
2023-05-10T02:37:17.949Z,214.66
2023-05-10T02:38:17.944Z,215.65
2023-05-10T02:39:17.964Z,215.84
2023-05-10T02:40:18.246Z,214.03
2023-05-10T02:41:17.973Z,214.87
2023-05-10T02:42:18.003Z,216.29
2023-05-10T02:43:18.016Z,213.85
2023-05-10T02:44:18.026Z,213.51
2023-05-10T02:45:18.046Z,214.98
2023-05-10T02:46:18.112Z,214.48
2023-05-10T02:47:18.076Z,211.99
2023-05-10T02:48:18.063Z,211.18
2023-05-10T02:49:18.093Z,209.57
2023-05-10T02:50:18.355Z,212.88
2023-05-10T02:51:18.097Z,213.09
2023-05-10T02:52:18.115Z,212.47
2023-05-10T02:53:18.106Z,212.87
2023-05-10T02:54:18.115Z,213.20
2023-05-10T02:55:18.123Z,213.44
2023-05-10T02:56:18.127Z,213.17
2023-05-10T02:57:18.134Z,215.34
2023-05-10T02:58:18.128Z,215.35
2023-05-10T02:59:18.161Z,213.17
2023-05-10T03:00:18.360Z,213.15
2023-05-10T03:01:18.219Z,213.00
2023-05-10T03:02:18.183Z,212.23
2023-05-10T03:03:18.191Z,211.03
2023-05-10T03:04:18.195Z,211.12
2023-05-10T03:05:18.170Z,212.91
2023-05-10T03:06:18.208Z,212.51
2023-05-10T03:07:18.204Z,211.52
2023-05-10T03:08:18.206Z,209.95
2023-05-10T03:09:18.217Z,208.60
2023-05-10T03:10:18.364Z,208.46
2023-05-10T03:11:18.199Z,210.09
2023-05-10T03:12:18.205Z,211.72
2023-05-10T03:13:18.269Z,214.60
2023-05-10T03:14:18.203Z,209.55
2023-05-10T03:15:18.179Z,208.00
2023-05-10T03:16:18.199Z,209.15
2023-05-10T03:17:18.169Z,209.75
2023-05-10T03:18:18.185Z,208.16
2023-05-10T03:19:18.188Z,208.79
2023-05-10T03:20:18.431Z,206.96
2023-05-10T03:21:18.164Z,211.07
2023-05-10T03:22:18.173Z,212.53
2023-05-10T03:23:18.180Z,211.88
2023-05-10T03:24:18.181Z,213.08
2023-05-10T03:25:18.195Z,213.82
2023-05-10T03:26:18.214Z,212.79
2023-05-10T03:27:18.199Z,211.42
2023-05-10T03:28:18.208Z,211.67
2023-05-10T03:29:18.202Z,211.10
2023-05-10T03:30:18.466Z,213.83
2023-05-10T03:31:18.208Z,214.84
2023-05-10T03:32:18.193Z,213.18
2023-05-10T03:33:18.195Z,212.38
2023-05-10T03:34:18.169Z,215.16
2023-05-10T03:35:18.172Z,218.52
2023-05-10T03:36:18.179Z,220.85
2023-05-10T03:37:18.188Z,218.45
2023-05-10T03:38:18.159Z,215.71
2023-05-10T03:39:18.158Z,215.69
2023-05-10T03:40:18.647Z,215.70
2023-05-10T03:41:18.161Z,217.59
2023-05-10T03:42:18.143Z,218.52
2023-05-10T03:43:18.146Z,216.48
2023-05-10T03:44:18.170Z,217.10
2023-05-10T03:45:18.171Z,220.23
2023-05-10T03:46:18.158Z,216.48
2023-05-10T03:47:18.145Z,215.04
2023-05-10T03:48:18.136Z,215.53
2023-05-10T03:49:18.138Z,216.86
2023-05-10T03:50:18.344Z,216.28
2023-05-10T03:51:18.157Z,211.77
2023-05-10T03:52:18.130Z,212.31
2023-05-10T03:53:18.112Z,212.66
2023-05-10T03:54:18.134Z,212.73
2023-05-10T03:55:18.124Z,211.56
2023-05-10T03:56:18.101Z,207.76
2023-05-10T03:57:18.108Z,208.53
2023-05-10T03:58:18.093Z,210.16
2023-05-10T03:59:18.105Z,209.10
2023-05-10T04:00:18.264Z,207.98
2023-05-10T04:01:18.104Z,209.12
2023-05-10T04:02:18.132Z,212.43
2023-05-10T04:03:18.143Z,209.16
2023-05-10T04:04:18.180Z,208.27
2023-05-10T04:05:18.067Z,209.28
2023-05-10T04:06:18.116Z,206.59
2023-05-10T04:07:18.080Z,205.89
2023-05-10T04:08:18.071Z,206.57
2023-05-10T04:09:18.123Z,201.96
2023-05-10T04:10:18.317Z,204.24
2023-05-10T04:11:18.067Z,205.08
2023-05-10T04:12:18.063Z,204.29
2023-05-10T04:13:18.082Z,206.20
2023-05-10T04:14:18.086Z,203.42
2023-05-10T04:15:18.059Z,202.85
2023-05-10T04:16:18.126Z,202.65
2023-05-10T04:17:18.070Z,207.51
2023-05-10T04:18:18.067Z,207.89
2023-05-10T04:19:18.058Z,208.77
2023-05-10T04:20:18.202Z,205.03
2023-05-10T04:21:18.069Z,205.18
2023-05-10T04:22:18.059Z,205.52
2023-05-10T04:23:18.062Z,207.15
2023-05-10T04:24:18.088Z,208.52
2023-05-10T04:25:18.068Z,206.75
2023-05-10T04:26:18.080Z,206.47
2023-05-10T04:27:18.083Z,204.35
2023-05-10T04:28:18.068Z,205.03
2023-05-10T04:29:18.093Z,200.60
2023-05-10T04:30:18.203Z,203.35
2023-05-10T04:31:18.106Z,203.47
2023-05-10T04:32:18.081Z,205.20
2023-05-10T04:33:18.086Z,203.26
2023-05-10T04:34:18.087Z,206.34
2023-05-10T04:35:18.059Z,202.97
2023-05-10T04:36:18.084Z,202.90
2023-05-10T04:37:18.078Z,203.97
2023-05-10T04:38:18.060Z,201.26
2023-05-10T04:39:18.091Z,203.54
2023-05-10T04:40:18.331Z,206.54
2023-05-10T04:41:18.058Z,207.14
2023-05-10T04:42:18.074Z,207.54
2023-05-10T04:43:18.076Z,206.72
2023-05-10T04:44:18.079Z,210.23
2023-05-10T04:45:18.074Z,211.02
2023-05-10T04:46:18.140Z,210.30
2023-05-10T04:47:18.119Z,209.72
2023-05-10T04:48:18.084Z,209.64
2023-05-10T04:49:18.104Z,211.66
2023-05-10T04:50:18.279Z,210.83
2023-05-10T04:51:18.121Z,211.76
2023-05-10T04:52:18.116Z,212.58
2023-05-10T04:53:18.129Z,214.50
2023-05-10T04:54:18.117Z,212.98
2023-05-10T04:55:18.135Z,211.73
2023-05-10T04:56:18.120Z,210.30
2023-05-10T04:57:18.144Z,215.61
2023-05-10T04:58:18.134Z,227.83
2023-05-10T04:59:18.159Z,236.48
2023-05-10T05:00:18.306Z,226.17
2023-05-10T05:01:18.215Z,225.48
2023-05-10T05:02:18.168Z,237.21
2023-05-10T05:03:18.265Z,240.77
2023-05-10T05:04:18.188Z,248.37
2023-05-10T05:05:18.184Z,250.00
2023-05-10T05:06:18.187Z,250.40
2023-05-10T05:07:18.224Z,245.51
2023-05-10T05:08:18.189Z,250.11
2023-05-10T05:09:18.207Z,243.91
2023-05-10T05:10:18.471Z,242.66
2023-05-10T05:11:18.229Z,237.72
2023-05-10T05:12:18.199Z,236.65
2023-05-10T05:13:18.239Z,235.06
2023-05-10T05:14:18.199Z,234.12
2023-05-10T05:15:18.195Z,235.73
2023-05-10T05:16:18.239Z,231.21
2023-05-10T05:17:18.180Z,227.40
2023-05-10T05:18:18.170Z,229.49
2023-05-10T05:19:18.183Z,229.13
2023-05-10T05:20:18.345Z,229.08
2023-05-10T05:21:18.227Z,228.71
2023-05-10T05:22:19.589Z,229.20
2023-05-10T05:23:18.256Z,230.27
2023-05-10T05:24:18.273Z,232.11
2023-05-10T05:25:18.279Z,233.03
2023-05-10T05:26:18.292Z,230.20
2023-05-10T05:27:18.277Z,233.61
2023-05-10T05:28:18.306Z,260.33
2023-05-10T05:29:18.646Z,271.59
2023-05-10T05:30:18.495Z,258.86
2023-05-10T05:31:18.285Z,251.88
2023-05-10T05:32:18.262Z,249.03
2023-05-10T05:33:18.270Z,246.50
2023-05-10T05:34:18.625Z,248.37
2023-05-10T05:35:18.445Z,248.49
2023-05-10T05:36:18.231Z,247.99
2023-05-10T05:37:18.246Z,246.58
2023-05-10T05:38:18.263Z,250.00
2023-05-10T05:39:18.318Z,250.00
2023-05-10T05:40:18.289Z,244.99
2023-05-10T05:41:18.320Z,249.04
2023-05-10T05:42:18.394Z,250.00
2023-05-10T05:43:18.442Z,240.86
2023-05-10T05:44:18.502Z,235.44
2023-05-10T05:45:18.925Z,227.94
2023-05-10T05:46:18.667Z,226.85
2023-05-10T05:47:18.648Z,224.41
2023-05-10T05:48:18.672Z,223.92
2023-05-10T05:49:19.137Z,222.62
2023-05-10T05:50:18.688Z,214.29
2023-05-10T05:51:18.680Z,210.08
2023-05-10T05:52:18.695Z,198.39
2023-05-10T05:53:18.703Z,197.91
2023-05-10T05:54:19.116Z,197.36
2023-05-10T05:55:18.956Z,197.21
2023-05-10T05:56:18.866Z,199.44
2023-05-10T05:57:18.888Z,196.56
2023-05-10T05:58:18.946Z,201.34
2023-05-10T05:59:19.005Z,205.14
2023-05-10T06:00:19.012Z,215.14
2023-05-10T06:01:19.041Z,216.86
2023-05-10T06:02:19.095Z,223.27
2023-05-10T06:03:19.199Z,225.47
2023-05-10T06:04:19.153Z,229.97
2023-05-10T06:05:19.180Z,233.49
2023-05-10T06:06:19.092Z,237.43
2023-05-10T06:07:19.104Z,241.85
2023-05-10T06:08:19.146Z,247.46
2023-05-10T06:09:19.202Z,250.09
2023-05-10T06:10:19.286Z,246.51
2023-05-10T06:11:19.334Z,250.02
2023-05-10T06:12:19.361Z,250.00
2023-05-10T06:13:19.501Z,248.48
2023-05-10T06:14:19.456Z,248.33
2023-05-10T06:15:19.626Z,246.73
2023-05-10T06:16:19.545Z,254.81
2023-05-10T06:17:19.547Z,258.73
2023-05-10T06:18:19.591Z,238.22
2023-05-10T06:19:19.662Z,234.43
2023-05-10T06:20:20.137Z,239.49
2023-05-10T06:21:19.679Z,239.42
2023-05-10T06:22:19.698Z,238.57
2023-05-10T06:23:19.702Z,238.39
2023-05-10T06:24:19.721Z,234.72
2023-05-10T06:25:19.824Z,233.42
2023-05-10T06:26:19.739Z,239.36
2023-05-10T06:27:19.756Z,222.84
2023-05-10T06:28:19.778Z,213.26
2023-05-10T06:29:19.809Z,200.90
2023-05-10T06:30:20.147Z,193.25
2023-05-10T06:31:19.927Z,191.64
2023-05-10T06:32:19.940Z,194.87
2023-05-10T06:33:19.970Z,204.48
2023-05-10T06:34:20.161Z,211.19
2023-05-10T06:35:20.173Z,215.37
2023-05-10T06:36:20.133Z,217.21
2023-05-10T06:37:20.159Z,222.47
2023-05-10T06:38:20.193Z,225.68
2023-05-10T06:39:20.258Z,229.09
2023-05-10T06:40:20.295Z,233.08
2023-05-10T06:41:21.582Z,234.70
2023-05-10T06:42:20.297Z,233.54
2023-05-10T06:43:20.301Z,226.58
2023-05-10T06:44:20.341Z,222.95
2023-05-10T06:45:20.618Z,226.68
2023-05-10T06:46:20.408Z,232.22
2023-05-10T06:47:20.385Z,247.23
2023-05-10T06:48:20.473Z,248.86
2023-05-10T06:49:20.440Z,249.29
2023-05-10T06:50:20.435Z,249.53
2023-05-10T06:51:20.434Z,245.46
2023-05-10T06:52:20.473Z,246.96
2023-05-10T06:53:20.444Z,247.03
2023-05-10T06:54:20.453Z,245.77
2023-05-10T06:55:20.433Z,241.33
2023-05-10T06:56:20.444Z,243.59
2023-05-10T06:57:31.443Z,245.30
2023-05-10T06:58:21.421Z,245.34
2023-05-10T06:59:20.526Z,245.38
2023-05-10T07:00:20.893Z,245.17
2023-05-10T07:01:20.553Z,245.94
2023-05-10T07:02:20.486Z,245.71
2023-05-10T07:03:20.506Z,247.09
2023-05-10T07:04:20.430Z,248.26
2023-05-10T07:05:20.787Z,249.24
2023-05-10T07:06:32.211Z,248.95
2023-05-10T07:07:21.378Z,249.05
2023-05-10T07:08:20.356Z,249.33
2023-05-10T07:09:20.356Z,250.49
2023-05-10T07:10:20.388Z,251.83
2023-05-10T07:11:20.352Z,253.15
2023-05-10T07:12:20.379Z,250.00
2023-05-10T07:13:20.458Z,248.97
2023-05-10T07:14:20.325Z,249.90
2023-05-10T07:15:20.334Z,249.15
2023-05-10T07:16:20.414Z,249.52
2023-05-10T07:17:20.536Z,245.71
2023-05-10T07:18:20.518Z,247.24
2023-05-10T07:19:20.571Z,247.27
2023-05-10T07:20:20.628Z,241.57
2023-05-10T07:21:20.760Z,235.01
2023-05-10T07:22:20.763Z,234.25
2023-05-10T07:23:20.819Z,229.82
2023-05-10T07:24:20.902Z,231.93
2023-05-10T07:25:20.929Z,231.14
2023-05-10T07:26:20.990Z,234.06
2023-05-10T07:27:21.164Z,227.24
2023-05-10T07:28:21.112Z,201.20
2023-05-10T07:29:21.157Z,175.12
2023-05-10T07:30:21.140Z,162.69
2023-05-10T07:31:21.151Z,166.46
2023-05-10T07:32:21.183Z,167.91
2023-05-10T07:33:21.240Z,171.72
2023-05-10T07:34:21.251Z,175.52
2023-05-10T07:35:21.298Z,181.04
2023-05-10T07:36:21.341Z,193.06
2023-05-10T07:37:21.359Z,199.98
2023-05-10T07:38:21.409Z,192.29
2023-05-10T07:39:27.072Z,199.35
2023-05-10T07:40:22.446Z,199.61
2023-05-10T07:41:21.421Z,200.42
2023-05-10T07:42:21.412Z,202.34
2023-05-10T07:43:21.407Z,205.87
2023-05-10T07:44:21.447Z,209.50
2023-05-10T07:45:21.395Z,206.45
2023-05-10T07:46:21.479Z,206.27
2023-05-10T07:47:21.390Z,208.64
2023-05-10T07:48:21.361Z,209.95
2023-05-10T07:49:21.682Z,212.50
2023-05-10T07:50:21.682Z,212.49
2023-05-10T07:51:21.354Z,213.08
2023-05-10T07:52:22.628Z,216.46
2023-05-10T07:53:21.336Z,215.49
2023-05-10T07:54:21.327Z,218.43
2023-05-10T07:55:21.672Z,216.80
2023-05-10T07:56:21.338Z,219.45
2023-05-10T07:57:21.355Z,214.64
2023-05-10T07:58:21.392Z,216.57
2023-05-10T07:59:21.462Z,219.97
2023-05-10T08:00:21.702Z,221.91
2023-05-10T08:01:21.582Z,220.96
2023-05-10T08:02:21.658Z,222.97
2023-05-10T08:03:21.742Z,223.63
2023-05-10T08:04:21.751Z,227.00
2023-05-10T08:05:21.763Z,228.93
2023-05-10T08:06:21.836Z,239.70
2023-05-10T08:07:21.857Z,250.00
2023-05-10T08:08:21.921Z,254.58
2023-05-10T08:09:21.944Z,258.96
2023-05-10T08:10:22.047Z,244.69
2023-05-10T08:11:22.027Z,234.87
2023-05-10T08:12:22.051Z,226.02
2023-05-10T08:13:22.095Z,225.62
2023-05-10T08:14:22.130Z,230.18
2023-05-10T08:15:22.708Z,228.67
2023-05-10T08:16:22.253Z,228.37
2023-05-10T08:17:24.631Z,250.78
2023-05-10T08:18:22.516Z,244.32
2023-05-10T08:19:22.389Z,236.99
2023-05-10T08:20:22.674Z,227.70
2023-05-10T08:21:22.466Z,196.45
2023-05-10T08:22:22.536Z,177.04
2023-05-10T08:23:22.548Z,162.17
2023-05-10T08:24:22.573Z,152.63
2023-05-10T08:25:22.577Z,145.45
2023-05-10T08:26:22.747Z,146.82
2023-05-10T08:27:22.650Z,141.32
2023-05-10T08:28:22.682Z,138.85
2023-05-10T08:29:22.719Z,143.13
2023-05-10T08:30:22.807Z,151.54
2023-05-10T08:31:22.874Z,146.74
2023-05-10T08:32:22.905Z,147.38
2023-05-10T08:33:22.963Z,149.08
2023-05-10T08:34:23.288Z,148.72
2023-05-10T08:35:23.020Z,148.44
2023-05-10T08:36:23.094Z,147.15
2023-05-10T08:37:23.120Z,151.06
2023-05-10T08:38:23.182Z,154.72
2023-05-10T08:39:30.231Z,165.05
2023-05-10T08:40:24.268Z,165.38
2023-05-10T08:41:23.220Z,167.08
2023-05-10T08:42:23.228Z,168.24
2023-05-10T08:43:23.221Z,171.06
2023-05-10T08:44:23.205Z,177.00
2023-05-10T08:45:23.700Z,181.42
2023-05-10T08:46:23.233Z,186.19
2023-05-10T08:47:23.243Z,189.36
2023-05-10T08:48:23.188Z,189.56
2023-05-10T08:49:23.249Z,191.62
2023-05-10T08:50:23.192Z,192.35
2023-05-10T08:51:23.183Z,193.88
2023-05-10T08:52:23.168Z,195.51
2023-05-10T08:53:23.183Z,193.98
2023-05-10T08:54:23.207Z,196.24
2023-05-10T08:55:23.224Z,195.88
2023-05-10T08:56:23.240Z,196.27
2023-05-10T08:57:23.264Z,196.29
2023-05-10T08:58:23.275Z,196.58
2023-05-10T08:59:23.268Z,196.39
2023-05-10T09:00:23.290Z,197.07
2023-05-10T09:01:23.429Z,197.03
2023-05-10T09:02:23.308Z,197.40
2023-05-10T09:03:23.332Z,196.88
2023-05-10T09:04:23.398Z,195.98
2023-05-10T09:05:23.383Z,196.54
2023-05-10T09:06:23.343Z,194.36
2023-05-10T09:07:23.338Z,195.42
2023-05-10T09:08:23.358Z,194.27
2023-05-10T09:09:23.362Z,193.24
2023-05-10T09:10:23.703Z,193.37
2023-05-10T09:11:23.377Z,192.79
2023-05-10T09:12:23.375Z,192.46
2023-05-10T09:13:23.384Z,192.89
2023-05-10T09:14:23.407Z,192.27
2023-05-10T09:15:23.716Z,192.64
2023-05-10T09:16:23.437Z,192.18
2023-05-10T09:17:23.668Z,191.52
2023-05-10T09:18:23.802Z,191.36
2023-05-10T09:19:23.447Z,192.10
2023-05-10T09:20:23.709Z,191.73
2023-05-10T09:21:23.532Z,190.35
2023-05-10T09:22:23.424Z,190.60
2023-05-10T09:23:23.444Z,190.20
2023-05-10T09:24:23.446Z,189.83
2023-05-10T09:25:23.737Z,188.78
2023-05-10T09:26:23.425Z,188.75
2023-05-10T09:27:23.452Z,188.24
2023-05-10T09:28:23.441Z,188.43
2023-05-10T09:29:23.438Z,187.62
2023-05-10T09:30:23.751Z,188.41
2023-05-10T09:31:23.697Z,174.98
2023-05-10T09:32:23.472Z,162.04
2023-05-10T09:33:23.441Z,119.59
2023-05-10T09:34:23.496Z,96.67
2023-05-10T09:35:23.555Z,86.99
2023-05-10T09:36:23.720Z,77.42
2023-05-10T09:37:23.556Z,74.48
2023-05-10T09:38:23.603Z,73.16
2023-05-10T09:39:23.595Z,70.07
2023-05-10T09:40:23.628Z,71.90
2023-05-10T09:41:23.677Z,76.71
2023-05-10T09:42:23.717Z,74.51
2023-05-10T09:43:23.766Z,74.79
2023-05-10T09:44:23.826Z,84.86
2023-05-10T09:45:24.229Z,94.78
2023-05-10T09:46:24.038Z,99.22
2023-05-10T09:47:24.070Z,105.07
2023-05-10T09:48:24.038Z,110.17
2023-05-10T09:49:24.063Z,114.97
2023-05-10T09:50:24.232Z,118.21
2023-05-10T09:51:24.072Z,116.13
2023-05-10T09:52:24.092Z,125.62
2023-05-10T09:53:24.114Z,134.55
2023-05-10T09:54:24.189Z,135.62
2023-05-10T09:55:24.238Z,140.65
2023-05-10T09:56:24.279Z,141.11
2023-05-10T09:57:24.317Z,146.00
2023-05-10T09:58:24.334Z,146.87
2023-05-10T09:59:24.351Z,142.68
2023-05-10T10:00:24.400Z,148.10
2023-05-10T10:01:24.418Z,152.62
2023-05-10T10:02:24.452Z,158.73
2023-05-10T10:03:24.404Z,160.40
2023-05-10T10:04:24.417Z,159.23
2023-05-10T10:05:24.415Z,160.30
2023-05-10T10:06:30.116Z,162.67
2023-05-10T10:07:25.408Z,162.75
2023-05-10T10:08:24.381Z,162.80
2023-05-10T10:09:24.389Z,163.25
2023-05-10T10:10:24.371Z,164.66
2023-05-10T10:11:24.370Z,169.37
2023-05-10T10:12:24.375Z,172.60
2023-05-10T10:13:24.345Z,175.20
2023-05-10T10:14:24.352Z,176.00
2023-05-10T10:15:24.407Z,177.60
2023-05-10T10:16:24.789Z,178.12
2023-05-10T10:17:24.556Z,178.37
2023-05-10T10:18:24.598Z,178.03
2023-05-10T10:19:24.640Z,166.01
2023-05-10T10:20:24.698Z,154.35
2023-05-10T10:21:24.775Z,148.69
2023-05-10T10:22:24.796Z,152.35
2023-05-10T10:23:24.831Z,156.77
2023-05-10T10:24:24.853Z,159.83
2023-05-10T10:25:24.872Z,161.18
2023-05-10T10:26:25.266Z,165.10
2023-05-10T10:27:24.972Z,171.69
2023-05-10T10:28:26.065Z,178.15
2023-05-10T10:29:25.102Z,185.96
2023-05-10T10:30:25.150Z,193.67
2023-05-10T10:31:25.218Z,196.89
2023-05-10T10:32:25.284Z,194.41
2023-05-10T10:33:28.919Z,199.69
2023-05-10T10:34:25.282Z,194.35
2023-05-10T10:35:25.293Z,198.95
2023-05-10T10:36:25.733Z,200.69
2023-05-10T10:37:25.277Z,202.11
2023-05-10T10:38:25.269Z,212.77
2023-05-10T10:39:25.269Z,228.68
2023-05-10T10:40:25.246Z,242.89
2023-05-10T10:41:25.241Z,252.64
2023-05-10T10:42:25.242Z,253.28
2023-05-10T10:43:25.317Z,258.83
2023-05-10T10:44:25.242Z,245.74
2023-05-10T10:45:25.213Z,213.65
2023-05-10T10:46:25.237Z,215.15
2023-05-10T10:47:25.256Z,214.93
2023-05-10T10:48:25.214Z,213.86
2023-05-10T10:49:25.206Z,210.96
2023-05-10T10:50:25.202Z,211.57
2023-05-10T10:51:25.198Z,210.51
2023-05-10T10:52:25.184Z,205.32
2023-05-10T10:53:25.199Z,204.82
2023-05-10T10:54:25.174Z,202.90
2023-05-10T10:55:25.157Z,201.30
2023-05-10T10:56:25.218Z,201.83
2023-05-10T10:57:25.144Z,198.62
2023-05-10T10:58:25.148Z,198.11
2023-05-10T10:59:25.124Z,197.91
2023-05-10T11:00:25.182Z,200.06
2023-05-10T11:01:25.170Z,193.88
2023-05-10T11:02:25.155Z,173.19
2023-05-10T11:03:25.114Z,181.02
2023-05-10T11:04:25.128Z,180.30
2023-05-10T11:05:25.084Z,184.11
2023-05-10T11:06:25.083Z,185.90
2023-05-10T11:07:25.088Z,184.97
2023-05-10T11:08:25.073Z,175.95
2023-05-10T11:09:25.064Z,176.19
2023-05-10T11:10:25.092Z,178.72
2023-05-10T11:11:25.069Z,161.83
2023-05-10T11:12:25.092Z,152.90
2023-05-10T11:13:25.036Z,160.60
2023-05-10T11:14:25.039Z,169.67
2023-05-10T11:15:25.048Z,156.23
2023-05-10T11:16:25.219Z,138.24
2023-05-10T11:17:25.130Z,155.66
2023-05-10T11:18:25.054Z,150.06
2023-05-10T11:19:25.081Z,141.57
2023-05-10T11:20:25.132Z,123.49
2023-05-10T11:21:25.199Z,129.37
2023-05-10T11:22:25.260Z,121.45
2023-05-10T11:23:25.297Z,127.67
2023-05-10T11:24:25.337Z,137.18
2023-05-10T11:25:25.350Z,132.67
2023-05-10T11:26:25.379Z,128.88
2023-05-10T11:27:25.390Z,121.89
2023-05-10T11:28:25.401Z,119.66
2023-05-10T11:29:25.413Z,114.82
2023-05-10T11:30:25.381Z,108.73
2023-05-10T11:31:25.427Z,103.22
2023-05-10T11:32:25.421Z,102.78
2023-05-10T11:33:25.416Z,104.00
2023-05-10T11:34:25.395Z,103.98
2023-05-10T11:35:25.386Z,109.11
2023-05-10T11:36:25.385Z,111.30
2023-05-10T11:37:25.383Z,115.47
2023-05-10T11:38:25.403Z,120.52
2023-05-10T11:39:25.415Z,123.80
2023-05-10T11:40:25.399Z,126.93
2023-05-10T11:41:25.438Z,129.24
2023-05-10T11:42:25.396Z,131.02
2023-05-10T11:43:25.432Z,134.73
2023-05-10T11:44:25.412Z,137.37
2023-05-10T11:45:25.441Z,138.79
2023-05-10T11:46:25.486Z,139.20
2023-05-10T11:47:25.449Z,140.25
2023-05-10T11:48:25.455Z,141.27
2023-05-10T11:49:25.439Z,142.29
2023-05-10T11:50:25.441Z,145.06
2023-05-10T11:51:25.470Z,144.36
2023-05-10T11:52:25.452Z,146.14
2023-05-10T11:53:25.925Z,146.43
2023-05-10T11:54:25.467Z,146.61
2023-05-10T11:55:25.473Z,147.39
2023-05-10T11:56:25.478Z,147.34
2023-05-10T11:57:25.482Z,148.12
2023-05-10T11:58:25.486Z,149.03
2023-05-10T11:59:25.467Z,148.04
2023-05-10T12:00:25.478Z,150.11
2023-05-10T12:01:25.488Z,148.61
2023-05-10T12:02:25.565Z,148.68
2023-05-10T12:03:25.547Z,147.10
2023-05-10T12:04:25.488Z,147.81
2023-05-10T12:05:25.463Z,140.52
2023-05-10T12:06:25.789Z,141.72
2023-05-10T12:07:25.474Z,140.13
2023-05-10T12:08:25.493Z,138.56
2023-05-10T12:09:39.543Z,138.46
2023-05-10T12:10:26.521Z,138.50
2023-05-10T12:11:25.780Z,135.80
2023-05-10T12:12:25.473Z,134.40
2023-05-10T12:13:25.461Z,131.80
2023-05-10T12:14:25.465Z,133.48
2023-05-10T12:15:25.443Z,137.29
2023-05-10T12:16:25.872Z,140.52
2023-05-10T12:17:25.494Z,138.73
2023-05-10T12:18:25.466Z,138.85
2023-05-10T12:19:25.427Z,136.16
2023-05-10T12:20:25.424Z,137.19
2023-05-10T12:21:25.419Z,135.93
2023-05-10T12:22:25.420Z,135.67
2023-05-10T12:23:25.410Z,136.58
2023-05-10T12:24:25.403Z,136.28
2023-05-10T12:25:25.377Z,138.57
2023-05-10T12:26:25.374Z,139.72
2023-05-10T12:27:25.363Z,140.57
2023-05-10T12:28:25.371Z,140.30